TimeEST,TemperatureF,Dew PointF,Humidity,Sea Level PressureIn,VisibilityMPH,Wind Direction,Wind SpeedMPH,Gust SpeedMPH,PrecipitationIn,Events,Conditions,WindDirDegrees,DateUTC
12:53 AM,60.1,50.0,69,30.10,10.0,WNW,12.7,-,N/A,,Partly Cloudy,300,2013-01-18 05:53:00
1:53 AM,59.0,50.0,72,30.10,10.0,WNW,10.4,-,N/A,,Scattered Clouds,300,2013-01-18 06:53:00
2:53 AM,57.0,48.0,72,30.11,10.0,NW,10.4,-,N/A,,Partly Cloudy,310,2013-01-18 07:53:00
3:53 AM,55.9,46.9,72,30.12,10.0,NW,12.7,-,N/A,,Partly Cloudy,320,2013-01-18 08:53:00
4:53 AM,54.0,45.0,72,30.14,10.0,NNW,11.5,-,N/A,,Partly Cloudy,330,2013-01-18 09:53:00
5:53 AM,52.0,45.0,77,30.16,10.0,NNW,11.5,21.9,N/A,,Scattered Clouds,330,2013-01-18 10:53:00
6:40 AM,51.8,44.6,76,30.17,10.0,WNW,12.7,-,N/A,,Mostly Cloudy,290,2013-01-18 11:40:00
6:53 AM,52.0,45.0,77,30.18,10.0,NW,13.8,-,N/A,,Mostly Cloudy,310,2013-01-18 11:53:00
7:53 AM,52.0,45.0,77,30.20,10.0,NW,11.5,-,N/A,,Mostly Cloudy,310,2013-01-18 12:53:00
8:06 AM,53.6,44.6,72,30.20,10.0,NW,12.7,-,N/A,,Scattered Clouds,320,2013-01-18 13:06:00
8:53 AM,54.0,44.1,69,30.22,10.0,WNW,11.5,-,N/A,,Scattered Clouds,300,2013-01-18 13:53:00
9:53 AM,55.9,45.0,67,30.23,10.0,NW,10.4,-,N/A,,Scattered Clouds,310,2013-01-18 14:53:00
10:53 AM,61.0,48.0,62,30.23,10.0,NW,11.5,-,N/A,,Scattered Clouds,320,2013-01-18 15:53:00
11:53 AM,64.0,51.1,63,30.21,10.0,North,6.9,-,N/A,,Scattered Clouds,350,2013-01-18 16:53:00
12:53 PM,66.9,52.0,59,30.18,10.0,North,8.1,-,N/A,,Mostly Cloudy,350,2013-01-18 17:53:00
1:53 PM,70.0,53.1,55,30.16,10.0,NNE,8.1,-,N/A,,Mostly Cloudy,30,2013-01-18 18:53:00
2:53 PM,72.0,55.9,57,30.15,10.0,NNE,15.0,-,N/A,,Mostly Cloudy,20,2013-01-18 19:53:00
3:53 PM,72.0,55.9,57,30.15,10.0,NE,11.5,-,N/A,,Scattered Clouds,40,2013-01-18 20:53:00
4:53 PM,72.0,52.0,49,30.16,10.0,NE,13.8,-,N/A,,Mostly Cloudy,40,2013-01-18 21:53:00
5:53 PM,70.0,53.1,55,30.18,10.0,NE,11.5,-,N/A,,Mostly Cloudy,40,2013-01-18 22:53:00
6:53 PM,71.1,54.0,55,30.19,10.0,ENE,12.7,-,N/A,,Scattered Clouds,60,2013-01-18 23:53:00
7:53 PM,71.1,55.0,57,30.20,10.0,NE,12.7,-,N/A,,Scattered Clouds,50,2013-01-19 00:53:00
8:53 PM,71.1,53.1,53,30.19,10.0,ENE,13.8,20.7,N/A,,Scattered Clouds,70,2013-01-19 01:53:00
9:53 PM,70.0,54.0,57,30.20,10.0,ENE,10.4,-,N/A,,Scattered Clouds,70,2013-01-19 02:53:00
10:53 PM,70.0,55.0,59,30.19,10.0,East,11.5,-,N/A,,Partly Cloudy,80,2013-01-19 03:53:00
11:53 PM,70.0,55.9,61,30.18,10.0,East,11.5,-,N/A,,Partly Cloudy,90,2013-01-19 04:53:00